Time,TemperatureF,DewpointF,PressureIn,WindDirection,WindDirectionDegrees,WindSpeedMPH,WindSpeedGustMPH,Humidity,HourlyPrecipIn,Conditions,Clouds,dailyrainin,SoftwareType,DateUTC
2013-03-06 00:00:00,63.0,53.6,30.36,NW,322,10.1,10.1,73,0.00,NA,NA,-99.99,,2013-03-06 05:00:00,
2013-03-06 00:05:00,63.0,53.6,30.36,West,275,5.4,8.1,73,0.00,NA,NA,-99.99,,2013-03-06 05:05:00,
2013-03-06 00:10:00,63.0,53.6,30.39,NW,318,5.4,6.3,73,0.00,NA,NA,-99.99,,2013-03-06 05:10:00,
2013-03-06 00:15:00,63.0,53.6,30.39,WNW,284,3.6,4.1,73,0.00,NA,NA,-99.99,,2013-03-06 05:15:00,
2013-03-06 00:20:00,63.0,53.6,30.39,NW,304,6.8,6.8,73,0.00,NA,NA,-99.99,,2013-03-06 05:20:00,
2013-03-06 00:25:00,63.0,53.6,30.39,WSW,247,3.6,3.6,73,0.00,NA,NA,-99.99,,2013-03-06 05:25:00,
2013-03-06 00:30:00,63.0,53.6,30.39,WNW,293,8.1,8.3,73,0.00,NA,NA,-99.99,,2013-03-06 05:30:00,
2013-03-06 00:40:00,63.0,53.6,30.39,WNW,289,7.2,7.7,73,0.00,NA,NA,-99.99,,2013-03-06 05:40:00,
2013-03-06 00:45:00,63.0,53.6,30.39,NNW,335,5.4,8.1,73,0.00,NA,NA,-99.99,,2013-03-06 05:45:00,
2013-03-06 00:55:00,63.0,53.6,30.39,West,268,5.8,8.1,73,0.00,NA,NA,-99.99,,2013-03-06 05:55:00,
2013-03-06 01:05:00,63.0,53.6,30.39,West,271,5.8,5.8,73,0.00,NA,NA,-99.99,,2013-03-06 06:05:00,
2013-03-06 01:15:00,63.0,53.6,30.39,West,269,7.2,7.2,73,0.00,NA,NA,-99.99,,2013-03-06 06:15:00,
2013-03-06 01:25:00,63.0,53.6,30.42,NW,310,7.7,12.4,73,0.00,NA,NA,-99.99,,2013-03-06 06:25:00,
2013-03-06 01:30:00,63.0,53.6,30.42,WNW,291,4.9,4.9,73,0.00,NA,NA,-99.99,,2013-03-06 06:30:00,
2013-03-06 01:40:00,63.0,53.6,30.42,NW,311,5.8,5.8,73,0.00,NA,NA,-99.99,,2013-03-06 06:40:00,
2013-03-06 01:50:00,63.0,53.6,30.42,NNW,345,4.5,4.5,73,0.00,NA,NA,-99.99,,2013-03-06 06:50:00,
2013-03-06 02:00:00,63.0,53.6,30.42,West,274,4.1,4.1,73,0.00,NA,NA,-99.99,,2013-03-06 07:00:00,
2013-03-06 02:05:00,63.0,53.6,30.42,NNW,327,3.6,5.8,73,0.00,NA,NA,-99.99,,2013-03-06 07:05:00,
2013-03-06 02:15:00,63.0,53.6,30.42,WNW,297,3.6,3.6,73,0.00,NA,NA,-99.99,,2013-03-06 07:15:00,
2013-03-06 02:20:00,63.0,53.6,30.42,NNW,335,4.1,4.1,73,0.00,NA,NA,-99.99,,2013-03-06 07:20:00,
2013-03-06 02:30:00,63.0,53.6,30.42,NW,311,4.1,5.4,73,0.00,NA,NA,-99.99,,2013-03-06 07:30:00,
2013-03-06 02:40:00,63.0,53.6,30.42,North,353,3.2,3.2,73,0.00,NA,NA,-99.99,,2013-03-06 07:40:00,
2013-03-06 02:45:00,63.0,53.6,30.42,NW,318,3.6,4.1,73,0.00,NA,NA,-99.99,,2013-03-06 07:45:00,
2013-03-06 02:55:00,63.0,53.6,30.42,West,269,0.0,2.7,73,0.00,NA,NA,-99.99,,2013-03-06 07:55:00,
2013-03-06 03:05:00,63.0,53.6,30.42,NW,307,2.2,4.1,73,0.00,NA,NA,-99.99,,2013-03-06 08:05:00,
2013-03-06 03:15:00,63.0,53.6,30.42,WNW,288,3.2,3.2,73,0.00,NA,NA,-99.99,,2013-03-06 08:15:00,
2013-03-06 03:25:00,63.0,53.6,30.42,WNW,284,2.2,3.2,73,0.00,NA,NA,-99.99,,2013-03-06 08:25:00,
2013-03-06 03:35:00,63.0,53.6,30.42,WNW,290,2.7,2.7,73,0.00,NA,NA,-99.99,,2013-03-06 08:35:00,
2013-03-06 03:40:00,63.0,53.6,30.39,West,266,2.7,3.2,73,0.00,NA,NA,-99.99,,2013-03-06 08:40:00,
2013-03-06 03:50:00,63.0,53.6,30.39,WNW,286,2.7,2.7,73,0.00,NA,NA,-99.99,,2013-03-06 08:50:00,
2013-03-06 03:55:00,63.0,53.6,30.39,WNW,293,4.1,4.1,73,0.00,NA,NA,-99.99,,2013-03-06 08:55:00,
2013-03-06 04:00:00,63.0,53.6,30.39,WNW,289,0.0,0.0,73,0.00,NA,NA,-99.99,,2013-03-06 09:00:00,
2013-03-06 04:10:00,63.0,53.6,30.39,West,268,2.2,2.7,73,0.00,NA,NA,-99.99,,2013-03-06 09:10:00,
2013-03-06 04:15:00,63.0,53.6,30.39,WNW,283,2.7,3.2,73,0.00,NA,NA,-99.99,,2013-03-06 09:15:00,
2013-03-06 04:25:00,63.0,53.6,30.42,WNW,283,3.2,3.2,73,0.00,NA,NA,-99.99,,2013-03-06 09:25:00,
2013-03-06 04:35:00,63.0,53.6,30.42,WNW,303,2.7,2.7,73,0.00,NA,NA,-99.99,,2013-03-06 09:35:00,
2013-03-06 04:40:00,63.0,53.6,30.42,West,270,0.0,2.7,73,0.00,NA,NA,-99.99,,2013-03-06 09:40:00,
2013-03-06 04:50:00,63.0,53.6,30.42,West,270,2.7,3.6,73,0.00,NA,NA,-99.99,,2013-03-06 09:50:00,
2013-03-06 05:00:00,63.0,53.6,30.42,WNW,290,3.2,3.2,73,0.00,NA,NA,-99.99,,2013-03-06 10:00:00,
2013-03-06 05:10:00,63.0,53.6,30.42,WSW,246,0.0,2.2,73,0.00,NA,NA,-99.99,,2013-03-06 10:10:00,
2013-03-06 05:15:00,63.0,53.6,30.42,WNW,283,3.2,4.9,73,0.00,NA,NA,-99.99,,2013-03-06 10:15:00,
2013-03-06 05:25:00,63.0,53.6,30.42,WNW,291,0.0,0.0,73,0.00,NA,NA,-99.99,,2013-03-06 10:25:00,
2013-03-06 05:35:00,63.0,53.6,30.42,WNW,291,2.7,3.2,73,0.00,NA,NA,-99.99,,2013-03-06 10:35:00,
2013-03-06 05:45:00,63.0,53.6,30.42,NW,304,4.1,5.8,73,0.00,NA,NA,-99.99,,2013-03-06 10:45:00,
2013-03-06 05:55:00,63.0,53.6,30.45,West,272,3.2,6.3,73,0.00,NA,NA,-99.99,,2013-03-06 10:55:00,
2013-03-06 06:00:00,63.0,53.6,30.45,WNW,282,4.9,4.9,73,0.00,NA,NA,-99.99,,2013-03-06 11:00:00,
2013-03-06 06:10:00,63.0,53.6,30.45,NW,312,3.6,3.6,73,0.00,NA,NA,-99.99,,2013-03-06 11:10:00,
2013-03-06 06:20:00,63.0,53.6,30.45,NW,325,5.4,5.4,73,0.00,NA,NA,-99.99,,2013-03-06 11:20:00,
2013-03-06 06:30:00,63.0,53.6,30.45,WNW,284,5.8,6.3,73,0.00,NA,NA,-99.99,,2013-03-06 11:30:00,
2013-03-06 06:35:00,63.0,53.6,30.45,NW,319,4.5,4.5,73,0.00,NA,NA,-99.99,,2013-03-06 11:35:00,
2013-03-06 06:40:00,63.0,53.6,30.45,West,279,3.6,4.9,73,0.00,NA,NA,-99.99,,2013-03-06 11:40:00,
2013-03-06 06:45:00,63.0,53.6,30.45,West,269,5.4,6.3,73,0.00,NA,NA,-99.99,,2013-03-06 11:45:00,
2013-03-06 06:55:00,63.0,53.6,30.45,West,276,5.8,5.8,73,0.00,NA,NA,-99.99,,2013-03-06 11:55:00,
2013-03-06 07:00:00,63.0,53.6,30.45,West,274,5.4,5.8,73,0.00,NA,NA,-99.99,,2013-03-06 12:00:00,
2013-03-06 07:10:00,63.0,53.6,30.45,West,271,7.2,7.2,73,0.00,NA,NA,-99.99,,2013-03-06 12:10:00,
2013-03-06 07:20:00,63.0,53.6,30.45,WNW,294,4.1,5.8,73,0.00,NA,NA,-99.99,,2013-03-06 12:20:00,
2013-03-06 07:30:00,63.0,53.6,30.45,NW,305,4.9,4.9,73,0.00,NA,NA,-99.99,,2013-03-06 12:30:00,
2013-03-06 07:40:00,63.0,53.6,30.47,NW,308,6.3,6.3,73,0.00,NA,NA,-99.99,,2013-03-06 12:40:00,
2013-03-06 07:45:00,63.0,53.6,30.47,WNW,288,4.5,5.4,73,0.00,NA,NA,-99.99,,2013-03-06 12:45:00,
2013-03-06 07:50:00,63.0,53.6,30.47,West,269,9.2,9.2,73,0.00,NA,NA,-99.99,,2013-03-06 12:50:00,
2013-03-06 07:55:00,63.0,53.6,30.47,NW,305,6.3,8.3,73,0.00,NA,NA,-99.99,,2013-03-06 12:55:00,
2013-03-06 08:05:00,63.0,53.6,30.47,ENE,64,6.3,6.3,73,0.00,NA,NA,-99.99,,2013-03-06 13:05:00,
2013-03-06 08:15:00,63.0,53.6,30.47,NW,326,5.8,5.8,73,0.00,NA,NA,-99.99,,2013-03-06 13:15:00,
2013-03-06 08:20:00,63.0,53.6,30.47,NW,311,9.7,9.7,73,0.00,NA,NA,-99.99,,2013-03-06 13:20:00,
2013-03-06 08:30:00,63.0,53.6,30.50,WNW,295,6.8,6.8,73,0.00,NA,NA,-99.99,,2013-03-06 13:30:00,
2013-03-06 08:35:00,63.0,53.6,30.50,North,353,5.4,5.4,73,0.00,NA,NA,-99.99,,2013-03-06 13:35:00,
2013-03-06 08:45:00,63.0,53.6,30.50,WNW,296,4.1,4.1,73,0.00,NA,NA,-99.99,,2013-03-06 13:45:00,
2013-03-06 08:55:00,63.0,53.6,30.47,WNW,283,4.5,7.7,73,0.00,NA,NA,-99.99,,2013-03-06 13:55:00,
2013-03-06 09:05:00,63.0,53.6,30.47,NW,312,6.3,6.3,73,0.00,NA,NA,-99.99,,2013-03-06 14:05:00,
2013-03-06 09:10:00,63.0,53.6,30.50,North,3,4.1,4.1,73,0.00,NA,NA,-99.99,,2013-03-06 14:10:00,
2013-03-06 09:20:00,63.0,53.6,30.47,NW,319,4.5,7.7,73,0.00,NA,NA,-99.99,,2013-03-06 14:20:00,
2013-03-06 09:30:00,63.0,53.6,30.47,NW,323,5.8,5.8,73,0.00,NA,NA,-99.99,,2013-03-06 14:30:00,
2013-03-06 09:40:00,63.0,53.6,30.50,WNW,295,7.2,11.0,73,0.00,NA,NA,-99.99,,2013-03-06 14:40:00,
2013-03-06 09:50:00,63.0,53.6,30.50,NW,324,2.7,3.2,73,0.00,NA,NA,-99.99,,2013-03-06 14:50:00,
2013-03-06 09:55:00,63.0,53.6,30.50,WNW,300,8.1,8.1,73,0.00,NA,NA,-99.99,,2013-03-06 14:55:00,
2013-03-06 10:05:00,63.0,53.6,30.47,NNW,341,5.4,5.4,73,0.00,NA,NA,-99.99,,2013-03-06 15:05:00,
2013-03-06 10:15:00,63.0,53.6,30.47,West,265,6.8,6.8,73,0.00,NA,NA,-99.99,,2013-03-06 15:15:00,
2013-03-06 10:25:00,63.0,53.6,30.47,WNW,286,6.8,10.1,73,0.00,NA,NA,-99.99,,2013-03-06 15:25:00,
2013-03-06 10:35:00,63.0,53.6,30.47,NW,306,4.9,4.9,73,0.00,NA,NA,-99.99,,2013-03-06 15:35:00,
2013-03-06 10:40:00,63.0,53.6,30.47,West,265,5.8,10.6,73,0.00,NA,NA,-99.99,,2013-03-06 15:40:00,
2013-03-06 10:50:00,63.0,53.6,30.47,WNW,283,5.4,6.3,73,0.00,NA,NA,-99.99,,2013-03-06 15:50:00,
2013-03-06 10:55:00,63.0,53.6,30.47,WNW,289,4.1,4.5,73,0.00,NA,NA,-99.99,,2013-03-06 15:55:00,
2013-03-06 11:00:00,63.0,53.6,30.47,West,279,9.2,9.2,73,0.00,NA,NA,-99.99,,2013-03-06 16:00:00,
2013-03-06 11:05:00,63.0,53.6,30.47,West,275,7.2,13.7,73,0.00,NA,NA,-99.99,,2013-03-06 16:05:00,
2013-03-06 11:15:00,63.0,53.6,30.47,WNW,295,7.7,7.7,73,0.00,NA,NA,-99.99,,2013-03-06 16:15:00,
2013-03-06 11:25:00,63.0,53.6,30.47,WNW,292,6.3,8.8,73,0.00,NA,NA,-99.99,,2013-03-06 16:25:00,
2013-03-06 11:35:00,63.0,53.6,30.47,WNW,286,9.2,11.0,73,0.00,NA,NA,-99.99,,2013-03-06 16:35:00,
2013-03-06 11:40:00,63.0,53.6,30.47,WNW,283,6.3,7.2,73,0.00,NA,NA,-99.99,,2013-03-06 16:40:00,
2013-03-06 11:50:00,63.0,53.6,30.47,NW,324,8.3,8.3,73,0.00,NA,NA,-99.99,,2013-03-06 16:50:00,
2013-03-06 12:00:00,63.0,53.6,30.47,NW,311,5.8,5.8,73,0.00,NA,NA,-99.99,,2013-03-06 17:00:00,
2013-03-06 12:10:00,63.0,53.6,30.47,WNW,303,5.4,7.7,73,0.00,NA,NA,-99.99,,2013-03-06 17:10:00,
2013-03-06 12:20:00,63.0,53.6,30.47,West,280,8.3,8.3,73,0.00,NA,NA,-99.99,,2013-03-06 17:20:00,
2013-03-06 12:30:00,63.0,53.6,30.47,WNW,290,8.8,8.8,73,0.00,NA,NA,-99.99,,2013-03-06 17:30:00,
2013-03-06 12:40:00,63.0,53.6,30.47,West,277,6.8,6.8,73,0.00,NA,NA,-99.99,,2013-03-06 17:40:00,
2013-03-06 12:45:00,63.0,53.6,30.47,West,272,4.1,5.8,73,0.00,NA,NA,-99.99,,2013-03-06 17:45:00,
2013-03-06 12:55:00,63.0,53.6,30.47,NNW,338,7.2,7.2,73,0.00,NA,NA,-99.99,,2013-03-06 17:55:00,
2013-03-06 13:00:00,63.0,53.6,30.47,North,0,4.1,5.8,73,0.00,NA,NA,-99.99,,2013-03-06 18:00:00,
2013-03-06 13:10:00,63.0,53.6,30.45,WNW,292,4.5,5.8,73,0.00,NA,NA,-99.99,,2013-03-06 18:10:00,
2013-03-06 13:20:00,63.0,53.6,30.45,SW,234,4.9,6.3,73,0.00,NA,NA,-99.99,,2013-03-06 18:20:00,
2013-03-06 13:25:00,63.0,53.6,30.45,NNW,341,10.1,10.1,73,0.00,NA,NA,-99.99,,2013-03-06 18:25:00,
2013-03-06 13:35:00,63.0,53.6,30.45,NW,316,8.1,8.1,73,0.00,NA,NA,-99.99,,2013-03-06 18:35:00,
2013-03-06 13:45:00,63.0,53.6,30.45,West,265,8.3,8.3,73,0.00,NA,NA,-99.99,,2013-03-06 18:45:00,
2013-03-06 13:55:00,63.0,53.6,30.45,NNW,329,7.2,8.1,73,0.00,NA,NA,-99.99,,2013-03-06 18:55:00,
2013-03-06 14:05:00,63.0,53.6,30.45,NW,308,7.2,8.1,73,0.00,NA,NA,-99.99,,2013-03-06 19:05:00,
2013-03-06 14:10:00,63.0,53.6,30.45,West,281,5.8,5.8,73,0.00,NA,NA,-99.99,,2013-03-06 19:10:00,
2013-03-06 14:20:00,63.0,53.6,30.42,NNW,340,7.2,7.2,73,0.00,NA,NA,-99.99,,2013-03-06 19:20:00,
2013-03-06 14:30:00,63.0,53.6,30.42,WNW,287,4.9,6.3,73,0.00,NA,NA,-99.99,,2013-03-06 19:30:00,
2013-03-06 14:40:00,63.0,53.6,30.42,NNW,348,7.7,7.7,73,0.00,NA,NA,-99.99,,2013-03-06 19:40:00,
2013-03-06 14:45:00,63.0,53.6,30.42,WNW,287,8.1,8.1,73,0.00,NA,NA,-99.99,,2013-03-06 19:45:00,
2013-03-06 14:50:00,63.0,53.6,30.42,WNW,300,6.3,6.3,73,0.00,NA,NA,-99.99,,2013-03-06 19:50:00,
2013-03-06 14:55:00,63.0,53.6,30.42,NW,318,6.3,6.3,73,0.00,NA,NA,-99.99,,2013-03-06 19:55:00,
2013-03-06 15:00:00,63.0,53.6,30.42,SE,127,4.1,4.1,73,0.00,NA,NA,-99.99,,2013-03-06 20:00:00,
2013-03-06 15:10:00,63.0,53.6,30.42,NW,311,8.1,8.1,73,0.00,NA,NA,-99.99,,2013-03-06 20:10:00,
2013-03-06 15:20:00,63.0,53.6,30.45,North,5,7.7,7.7,73,0.00,NA,NA,-99.99,,2013-03-06 20:20:00,
2013-03-06 15:30:00,63.0,53.6,30.45,WNW,302,9.7,9.7,73,0.00,NA,NA,-99.99,,2013-03-06 20:30:00,
2013-03-06 15:35:00,63.0,53.6,30.42,NW,325,5.8,5.8,73,0.00,NA,NA,-99.99,,2013-03-06 20:35:00,
2013-03-06 15:45:00,63.0,53.6,30.42,NNW,327,6.8,7.7,73,0.00,NA,NA,-99.99,,2013-03-06 20:45:00,
2013-03-06 15:55:00,63.0,53.6,30.42,NNW,327,4.1,4.9,73,0.00,NA,NA,-99.99,,2013-03-06 20:55:00,
2013-03-06 16:05:00,63.0,53.6,30.42,NNW,329,5.4,6.3,73,0.00,NA,NA,-99.99,,2013-03-06 21:05:00,
2013-03-06 16:15:00,63.0,53.6,30.42,NNW,346,6.8,6.8,73,0.00,NA,NA,-99.99,,2013-03-06 21:15:00,
2013-03-06 16:25:00,63.0,53.6,30.42,NW,322,5.4,5.4,73,0.00,NA,NA,-99.99,,2013-03-06 21:25:00,
2013-03-06 16:35:00,63.0,53.6,30.42,NW,306,5.8,5.8,73,0.00,NA,NA,-99.99,,2013-03-06 21:35:00,
2013-03-06 16:40:00,63.0,53.6,30.45,North,357,7.2,9.7,73,0.00,NA,NA,-99.99,,2013-03-06 21:40:00,
2013-03-06 16:50:00,63.0,53.6,30.45,WNW,297,6.3,6.3,73,0.00,NA,NA,-99.99,,2013-03-06 21:50:00,
2013-03-06 17:00:00,63.0,53.6,30.45,NW,322,5.4,10.6,73,0.00,NA,NA,-99.99,,2013-03-06 22:00:00,
2013-03-06 17:05:00,63.0,53.6,30.45,NW,310,4.9,6.3,73,0.00,NA,NA,-99.99,,2013-03-06 22:05:00,
2013-03-06 17:15:00,63.0,53.6,30.45,NW,321,7.7,8.3,73,0.00,NA,NA,-99.99,,2013-03-06 22:15:00,
2013-03-06 17:20:00,63.0,53.6,30.45,ENE,74,4.5,4.9,73,0.00,NA,NA,-99.99,,2013-03-06 22:20:00,
2013-03-06 17:30:00,63.0,53.6,30.45,NNW,334,5.4,8.8,73,0.00,NA,NA,-99.99,,2013-03-06 22:30:00,
2013-03-06 17:40:00,63.0,53.6,30.47,NNW,343,5.4,5.4,73,0.00,NA,NA,-99.99,,2013-03-06 22:40:00,
2013-03-06 17:50:00,63.0,53.6,30.47,WNW,291,7.7,7.7,73,0.00,NA,NA,-99.99,,2013-03-06 22:50:00,
2013-03-06 18:00:00,63.0,53.6,30.45,NNW,341,5.8,5.8,73,0.00,NA,NA,-99.99,,2013-03-06 23:00:00,
2013-03-06 18:05:00,63.0,53.6,30.45,NW,306,5.4,5.4,73,0.00,NA,NA,-99.99,,2013-03-06 23:05:00,
2013-03-06 18:15:00,63.0,53.6,30.45,NW,318,3.6,3.6,73,0.00,NA,NA,-99.99,,2013-03-06 23:15:00,
2013-03-06 18:25:00,63.0,53.6,30.47,NNW,336,4.5,4.5,73,0.00,NA,NA,-99.99,,2013-03-06 23:25:00,
2013-03-06 18:35:00,63.0,53.6,30.47,WNW,298,3.6,5.8,73,0.00,NA,NA,-99.99,,2013-03-06 23:35:00,
2013-03-06 18:45:00,63.0,53.6,30.47,NW,307,4.1,4.1,73,0.00,NA,NA,-99.99,,2013-03-06 23:45:00,
2013-03-06 18:50:00,63.0,53.6,30.47,WNW,293,4.1,4.1,73,0.00,NA,NA,-99.99,,2013-03-06 23:50:00,
2013-03-06 18:55:00,63.0,53.6,30.47,NW,317,4.5,4.5,73,0.00,NA,NA,-99.99,,2013-03-06 23:55:00,
2013-03-06 19:00:00,63.0,53.6,30.47,NW,324,4.5,4.5,73,0.00,NA,NA,-99.99,,2013-03-07 00:00:00,
2013-03-06 19:10:00,63.0,53.6,30.47,WNW,288,3.6,3.6,73,0.00,NA,NA,-99.99,,2013-03-07 00:10:00,
2013-03-06 19:20:00,63.0,53.6,30.47,NW,309,3.2,5.4,73,0.00,NA,NA,-99.99,,2013-03-07 00:20:00,
2013-03-06 19:25:00,63.0,53.6,30.47,NW,311,4.1,5.4,73,0.00,NA,NA,-99.99,,2013-03-07 00:25:00,
2013-03-06 19:35:00,63.0,53.6,30.47,NW,307,0.0,0.0,73,0.00,NA,NA,-99.99,,2013-03-07 00:35:00,
2013-03-06 19:45:00,63.0,53.6,30.47,WNW,291,4.1,4.1,73,0.00,NA,NA,-99.99,,2013-03-07 00:45:00,
2013-03-06 19:50:00,63.0,53.6,30.47,WNW,303,0.0,0.0,73,0.00,NA,NA,-99.99,,2013-03-07 00:50:00,
2013-03-06 20:00:00,63.0,53.6,30.47,NW,312,2.2,2.7,73,0.00,NA,NA,-99.99,,2013-03-07 01:00:00,
2013-03-06 20:10:00,63.0,53.6,30.50,West,277,2.7,3.6,73,0.00,NA,NA,-99.99,,2013-03-07 01:10:00,
2013-03-06 20:20:00,63.0,53.6,30.50,WNW,294,0.0,2.2,73,0.00,NA,NA,-99.99,,2013-03-07 01:20:00,
2013-03-06 20:25:00,63.0,53.6,30.50,West,276,3.6,3.6,73,0.00,NA,NA,-99.99,,2013-03-07 01:25:00,
2013-03-06 20:35:00,63.0,53.6,30.50,NW,316,3.2,4.9,73,0.00,NA,NA,-99.99,,2013-03-07 01:35:00,
2013-03-06 20:45:00,63.0,53.6,30.50,WNW,298,2.2,3.6,73,0.00,NA,NA,-99.99,,2013-03-07 01:45:00,
2013-03-06 20:55:00,63.0,53.6,30.50,NNW,336,2.7,3.2,73,0.00,NA,NA,-99.99,,2013-03-07 01:55:00,
2013-03-06 21:00:00,63.0,53.6,30.50,North,0,4.1,4.1,73,0.00,NA,NA,-99.99,,2013-03-07 02:00:00,
2013-03-06 21:10:00,63.0,53.6,30.50,WNW,300,3.6,0.0,73,0.00,NA,NA,-99.99,,2013-03-07 02:10:00,
2013-03-06 21:15:00,63.0,53.6,30.50,NNW,336,0.0,3.2,73,0.00,NA,NA,-99.99,,2013-03-07 02:15:00,
2013-03-06 21:20:00,63.0,53.6,30.53,WNW,295,2.7,2.7,73,0.00,NA,NA,-99.99,,2013-03-07 02:20:00,
2013-03-06 21:30:00,63.0,53.6,30.53,WNW,299,2.7,3.6,73,0.00,NA,NA,-99.99,,2013-03-07 02:30:00,
2013-03-06 21:35:00,63.0,53.6,30.53,WNW,290,0.0,2.7,73,0.00,NA,NA,-99.99,,2013-03-07 02:35:00,
2013-03-06 21:45:00,63.0,53.6,30.53,WNW,290,0.0,2.2,73,0.00,NA,NA,-99.99,,2013-03-07 02:45:00,
2013-03-06 21:55:00,63.0,53.6,30.53,NNW,344,3.6,5.4,73,0.00,NA,NA,-99.99,,2013-03-07 02:55:00,
2013-03-06 22:05:00,63.0,53.6,30.53,WNW,302,3.2,4.1,73,0.00,NA,NA,-99.99,,2013-03-07 03:05:00,
2013-03-06 22:10:00,63.0,53.6,30.53,West,275,3.6,3.6,73,0.00,NA,NA,-99.99,,2013-03-07 03:10:00,
2013-03-06 22:20:00,63.0,53.6,30.53,NNW,337,2.7,0.0,73,0.00,NA,NA,-99.99,,2013-03-07 03:20:00,
2013-03-06 22:30:00,63.0,53.6,30.53,West,274,3.2,3.2,73,0.00,NA,NA,-99.99,,2013-03-07 03:30:00,
2013-03-06 22:40:00,63.0,53.6,30.53,WNW,301,2.7,3.2,73,0.00,NA,NA,-99.99,,2013-03-07 03:40:00,
2013-03-06 22:45:00,63.0,53.6,30.53,WNW,298,4.5,4.5,73,0.00,NA,NA,-99.99,,2013-03-07 03:45:00,
2013-03-06 22:55:00,63.0,53.6,30.53,WNW,285,0.0,2.7,73,0.00,NA,NA,-99.99,,2013-03-07 03:55:00,
2013-03-06 23:05:00,63.0,53.6,30.53,NW,314,0.0,2.2,73,0.00,NA,NA,-99.99,,2013-03-07 04:05:00,
2013-03-06 23:15:00,63.0,53.6,30.53,WNW,299,2.2,2.2,73,0.00,NA,NA,-99.99,,2013-03-07 04:15:00,
2013-03-06 23:25:00,63.0,53.6,30.53,North,0,2.7,3.2,73,0.00,NA,NA,-99.99,,2013-03-07 04:25:00,
2013-03-06 23:30:00,63.0,53.6,30.53,North,353,2.7,4.1,73,0.00,NA,NA,-99.99,,2013-03-07 04:30:00,
2013-03-06 23:40:00,63.0,53.6,30.53,NNW,333,2.7,3.6,73,0.00,NA,NA,-99.99,,2013-03-07 04:40:00,
2013-03-06 23:45:00,63.0,53.6,30.53,NW,321,0.0,0.0,73,0.00,NA,NA,-99.99,,2013-03-07 04:45:00,
2013-03-06 23:50:00,63.0,53.6,30.53,WNW,298,0.0,2.2,73,0.00,NA,NA,-99.99,,2013-03-07 04:50:00,